Time;durP1;ratioP1;P1;durP2;ratioP2;P2;SDS_P1;SDS_P2;PMS_P1;PMS_P2;Temp;Humidity;BMP_temperature;BMP_pressure;BME280_temperature;BME280_humidity;BME280_pressure;Samples;Min_cycle;Max_cycle;Signal;HPM_P1;HPM_P2
2023/07/29 02:44:13;;;;;;;3.60;1.70;;;;;;;25.01;85.55;100072.13;108667;1256;77029;-88
2023/07/29 02:47:02;;;;;;;4.90;1.80;;;;;;;25.02;86.19;100076.06;108736;1257;70740;-90
2023/07/29 02:49:51;;;;;;;4.80;1.70;;;;;;;25.05;86.85;100074.48;108713;1256;72791;-91
2023/07/29 02:52:39;;;;;;;3.20;1.70;;;;;;;25.17;86.63;100073.81;108795;1255;62492;-89
2023/07/29 02:55:28;;;;;;;3.10;1.50;;;;;;;25.29;86.62;100074.70;108729;1255;60785;-91
2023/07/29 02:58:16;;;;;;;4.40;1.50;;;;;;;25.38;86.96;100072.36;108756;1255;74628;-89
2023/07/29 03:01:05;;;;;;;3.50;1.60;;;;;;;25.53;86.87;100071.59;108848;1255;61962;-89
2023/07/29 03:03:55;;;;;;;4.40;1.70;;;;;;;25.61;87.30;100073.55;108766;1256;65752;-90
2023/07/29 03:06:43;;;;;;;2.50;1.90;;;;;;;25.74;87.15;100075.80;108802;1256;60551;-89
2023/07/29 03:09:32;;;;;;;2.00;1.30;;;;;;;25.87;86.54;100069.23;108797;1256;59265;-90
2023/07/29 03:12:21;;;;;;;3.10;1.60;;;;;;;25.95;86.39;100066.80;108809;1256;68333;-91
2023/07/29 03:15:11;;;;;;;3.20;1.80;;;;;;;26.02;86.39;100070.74;108808;1255;61253;-90
2023/07/29 03:18:00;;;;;;;4.20;1.60;;;;;;;26.04;86.73;100065.46;108831;1256;65789;-89
2023/07/29 03:20:49;;;;;;;5.00;1.80;;;;;;;26.05;87.19;100061.95;108876;1255;59861;-88
2023/07/29 03:23:37;;;;;;;7.10;1.90;;;;;;;26.08;87.30;100059.50;108725;1255;58988;-89
2023/07/29 03:26:26;;;;;;;4.50;2.00;;;;;;;26.17;86.60;100074.95;108897;1256;65758;-90
2023/07/29 03:29:14;;;;;;;4.10;1.80;;;;;;;26.36;84.81;100082.38;108775;1255;70679;-90
2023/07/29 03:32:03;;;;;;;3.20;1.60;;;;;;;26.45;83.91;100083.52;108730;1255;64678;-90
2023/07/29 03:34:51;;;;;;;2.60;1.60;;;;;;;26.53;83.14;100079.09;108829;1255;59210;-90
2023/07/29 03:37:40;;;;;;;3.50;1.80;;;;;;;26.61;82.62;100080.08;108932;1255;59084;-89
2023/07/29 03:40:28;;;;;;;3.20;2.30;;;;;;;26.61;82.45;100076.14;108836;1255;67925;-90
2023/07/29 03:43:17;;;;;;;3.50;1.80;;;;;;;26.70;81.80;100074.96;108891;1256;61591;-89
2023/07/29 03:46:05;;;;;;;5.50;2.30;;;;;;;26.83;80.43;100079.86;108801;1255;66706;-88
2023/07/29 03:48:59;;;;;;;6.50;2.40;;;;;;;26.96;78.28;100077.55;108770;1256;59832;-89
2023/07/29 03:51:47;;;;;;;4.90;2.40;;;;;;;27.07;76.35;100078.51;108751;1255;59378;-89
2023/07/29 03:54:36;;;;;;;5.60;2.20;;;;;;;27.22;74.06;100078.91;108890;1255;66445;-89
2023/07/29 03:57:24;;;;;;;5.00;2.40;;;;;;;27.37;71.81;100078.02;108813;1257;59921;-90
2023/07/29 04:00:13;;;;;;;4.00;2.10;;;;;;;27.39;70.71;100078.83;108768;1256;65764;-90
2023/07/29 04:03:08;;;;;;;4.20;2.10;;;;;;;27.54;69.34;100081.19;108724;1256;59844;-89
2023/07/29 04:05:56;;;;;;;6.90;2.30;;;;;;;27.68;68.28;100076.52;108846;1255;59241;-89
2023/07/29 04:08:45;;;;;;;6.10;2.40;;;;;;;27.75;67.72;100074.89;108852;1255;64501;-90
2023/07/29 04:11:34;;;;;;;3.40;2.30;;;;;;;27.77;67.70;100077.13;108862;1256;60165;-89
2023/07/29 04:14:22;;;;;;;3.70;2.40;;;;;;;27.93;67.42;100077.09;108876;1255;64689;-89
2023/07/29 04:17:11;;;;;;;2.80;2.00;;;;;;;28.16;66.22;100079.66;108796;1257;59750;-88
2023/07/29 04:19:59;;;;;;;3.30;2.30;;;;;;;28.06;66.87;100084.36;108801;1255;59237;-90
2023/07/29 04:22:55;;;;;;;2.90;2.40;;;;;;;27.90;68.27;100085.39;108902;1256;64503;-88
2023/07/29 04:25:43;;;;;;;4.50;2.30;;;;;;;27.98;67.34;100086.41;108815;1255;62624;-90
2023/07/29 04:28:32;;;;;;;5.70;2.80;;;;;;;28.06;66.42;100089.98;108816;1256;65021;-90
2023/07/29 04:31:20;;;;;;;3.90;2.40;;;;;;;28.10;66.23;100094.05;108748;1255;59630;-90
2023/07/29 04:34:09;;;;;;;4.50;2.60;;;;;;;28.19;65.40;100097.55;108802;1256;59612;-89
2023/07/29 04:36:57;;;;;;;6.40;2.50;;;;;;;28.29;64.40;100097.65;108801;1256;67966;-90
2023/07/29 04:39:46;;;;;;;5.50;2.30;;;;;;;28.37;63.25;100100.10;108879;1256;60667;-90
2023/07/29 04:42:36;;;;;;;3.40;2.50;;;;;;;28.54;61.99;100104.36;108745;1255;64113;-89
2023/07/29 04:45:30;;;;;;;5.20;2.40;;;;;;;28.61;61.44;100109.55;108746;1255;59920;-90
2023/07/29 04:48:18;;;;;;;5.00;2.60;;;;;;;28.78;60.21;100111.69;108791;1255;59873;-88
2023/07/29 04:51:07;;;;;;;4.30;2.40;;;;;;;28.85;58.51;100114.13;108721;1255;74661;-90
2023/07/29 04:53:55;;;;;;;5.70;2.50;;;;;;;28.84;58.70;100116.08;108817;1255;60713;-89
2023/07/29 04:56:44;;;;;;;5.50;2.50;;;;;;;28.88;58.84;100114.44;108743;1255;65667;-90
2023/07/29 04:59:32;;;;;;;8.10;3.30;;;;;;;28.87;58.83;100113.08;108846;1255;59082;-89
2023/07/29 05:02:21;;;;;;;4.90;2.70;;;;;;;28.80;59.35;100118.11;108833;1255;59264;-89
2023/07/29 05:05:09;;;;;;;5.40;2.00;;;;;;;28.87;59.52;100115.48;108760;1255;67835;-91
2023/07/29 05:07:58;;;;;;;5.00;2.70;;;;;;;28.97;59.08;100110.84;108814;1255;72437;-90
2023/07/29 05:10:50;;;;;;;2.80;2.20;;;;;;;28.98;58.90;100111.39;108828;1255;64467;-92
2023/07/29 05:13:39;;;;;;;4.00;2.60;;;;;;;28.95;58.75;100113.65;108791;1256;59488;-89
2023/07/29 05:16:28;;;;;;;4.80;2.40;;;;;;;28.92;58.57;100107.49;108743;1255;59842;-90
2023/07/29 05:19:16;;;;;;;5.80;2.60;;;;;;;28.93;58.00;100102.59;108800;1256;68328;-90
2023/07/29 05:22:05;;;;;;;5.50;3.20;;;;;;;28.88;58.63;100098.37;108703;1255;60823;-89
2023/07/29 05:24:53;;;;;;;5.70;2.50;;;;;;;29.01;58.84;100092.80;108810;1257;65020;-90
2023/07/29 05:27:42;;;;;;;2.40;2.00;;;;;;;29.00;59.58;100095.46;108860;1256;59399;-91
2023/07/29 05:30:31;;;;;;;4.60;2.20;;;;;;;29.09;59.72;100095.89;108805;1255;59402;-90
2023/07/29 05:33:20;;;;;;;4.60;2.40;;;;;;;29.34;58.34;100092.14;108727;1255;66790;-90
2023/07/29 05:36:09;;;;;;;3.70;2.30;;;;;;;29.49;57.24;100094.57;108816;1256;61120;-91
2023/07/29 05:38:58;;;;;;;4.60;2.60;;;;;;;29.57;56.47;100092.64;108716;1255;65877;-90
2023/07/29 05:41:47;;;;;;;3.70;2.20;;;;;;;29.76;55.94;100093.36;108764;1257;60584;-90
2023/07/29 05:44:35;;;;;;;6.60;3.10;;;;;;;29.86;55.34;100100.08;108825;1255;59455;-90
2023/07/29 05:47:24;;;;;;;5.50;2.80;;;;;;;29.90;54.57;100104.14;108765;1256;64446;-88
2023/07/29 05:50:13;;;;;;;3.80;2.60;;;;;;;29.84;54.20;100104.60;108819;1255;61991;-89
2023/07/29 05:53:01;;;;;;;5.00;2.80;;;;;;;29.69;55.09;100111.20;108774;1257;73110;-87
2023/07/29 05:55:50;;;;;;;3.70;2.30;;;;;;;29.70;55.77;100107.50;108750;1256;59499;-88
2023/07/29 05:58:39;;;;;;;6.00;2.80;;;;;;;29.71;55.28;100105.48;108746;1255;59088;-89
2023/07/29 06:01:28;;;;;;;5.20;2.90;;;;;;;29.70;56.16;100107.81;108773;1255;77415;-87
2023/07/29 06:04:16;;;;;;;4.20;2.50;;;;;;;29.99;56.58;100115.37;108786;1255;59803;-88
2023/07/29 06:07:05;;;;;;;4.00;2.90;;;;;;;30.33;56.64;100113.67;108719;1256;65903;-90
2023/07/29 06:09:55;;;;;;;5.80;3.10;;;;;;;30.60;55.12;100112.52;108761;1256;59398;-90
2023/07/29 06:12:47;;;;;;;3.70;3.10;;;;;;;30.84;53.58;100113.79;108903;1256;59064;-89
2023/07/29 06:15:36;;;;;;;7.10;3.00;;;;;;;31.10;53.06;100116.69;108899;1255;67872;-89
2023/07/29 06:18:25;;;;;;;6.30;3.00;;;;;;;31.28;52.02;100116.05;108828;1256;59723;-92
2023/07/29 06:21:16;;;;;;;6.50;3.40;;;;;;;31.42;51.23;100122.14;108764;1255;71367;-90
2023/07/29 06:24:05;;;;;;;6.70;3.30;;;;;;;31.59;49.59;100124.41;108780;1255;59339;-91
2023/07/29 06:26:58;;;;;;;8.50;3.80;;;;;;;31.79;48.91;100117.91;108795;1255;60701;-89
2023/07/29 06:29:47;;;;;;;6.20;3.00;;;;;;;31.92;48.75;100115.97;108814;1255;68419;-90
2023/07/29 06:32:36;;;;;;;6.10;3.50;;;;;;;32.03;49.17;100110.35;108746;1255;60741;-88
2023/07/29 06:35:25;;;;;;;6.10;2.90;;;;;;;32.27;48.94;100114.47;108614;1256;65751;-89
2023/07/29 06:38:14;;;;;;;3.10;2.60;;;;;;;32.39;48.21;100117.52;108789;1255;59762;-89
2023/07/29 06:41:03;;;;;;;4.10;2.60;;;;;;;32.65;47.69;100111.62;108763;1256;59316;-87
2023/07/29 06:43:51;;;;;;;3.20;2.60;;;;;;;32.98;46.18;100112.23;108751;1256;64492;-88
2023/07/29 06:46:40;;;;;;;3.00;2.50;;;;;;;33.16;44.54;100113.09;108873;1256;60061;-88
2023/07/29 06:49:29;;;;;;;3.70;2.80;;;;;;;33.22;43.73;100111.89;108829;1256;66403;-88
2023/07/29 06:52:17;;;;;;;3.50;2.30;;;;;;;33.42;42.90;100111.62;108803;1257;60495;-89
2023/07/29 06:55:06;;;;;;;3.80;2.40;;;;;;;33.68;41.83;100112.73;108729;1256;59258;-89
2023/07/29 06:57:54;;;;;;;3.80;2.50;;;;;;;33.76;40.36;100106.94;108802;1255;77075;-90
2023/07/29 07:00:43;;;;;;;5.50;3.00;;;;;;;33.59;40.85;100111.41;108787;1256;62065;-90
2023/07/29 07:03:33;;;;;;;3.30;2.50;;;;;;;33.50;41.94;100113.52;108718;1255;65953;-91
2023/07/29 07:06:22;;;;;;;5.80;2.70;;;;;;;33.73;41.65;100114.28;108760;1256;59217;-91
2023/07/29 07:09:10;;;;;;;6.30;2.40;;;;;;;33.81;40.94;100110.10;108836;1255;59791;-91
2023/07/29 07:11:58;;;;;;;3.80;2.10;;;;;;;33.72;40.95;100112.33;108838;1255;68014;-91
2023/07/29 07:14:48;;;;;;;5.40;2.40;;;;;;;33.69;41.54;100109.41;108749;1256;62668;-92
2023/07/29 07:17:37;;;;;;;4.10;2.50;;;;;;;33.69;40.97;100108.49;108788;1255;65420;-89
2023/07/29 07:20:25;;;;;;;2.10;1.90;;;;;;;33.83;40.79;100110.61;108654;1255;59250;-89
2023/07/29 07:23:13;;;;;;;4.90;2.60;;;;;;;34.06;40.25;100112.84;108870;1256;58994;-90
2023/07/29 07:26:02;;;;;;;3.00;2.20;;;;;;;34.28;40.98;100109.60;108831;1255;76586;-89
2023/07/29 07:28:51;;;;;;;5.10;2.80;;;;;;;34.55;39.68;100112.66;108876;1255;61697;-90
2023/07/29 07:31:40;;;;;;;5.70;2.40;;;;;;;34.71;38.77;100110.89;108758;1257;65665;-90
2023/07/29 07:34:29;;;;;;;3.40;2.10;;;;;;;34.73;38.05;100112.46;108768;1255;59096;-89
2023/07/29 07:37:18;;;;;;;4.40;2.20;;;;;;;34.59;38.02;100111.83;108916;1255;59795;-89
2023/07/29 07:40:07;;;;;;;2.40;1.80;;;;;;;34.50;37.86;100106.88;108799;1257;66852;-90
2023/07/29 07:42:56;;;;;;;5.10;1.70;;;;;;;34.42;38.01;100101.55;108747;1255;62005;-90
2023/07/29 07:45:44;;;;;;;3.30;2.50;;;;;;;34.52;38.15;100103.66;108806;1257;65642;-89
2023/07/29 07:48:33;;;;;;;2.80;1.90;;;;;;;34.69;38.36;100100.17;108834;1255;59944;-90
2023/07/29 07:51:21;;;;;;;4.50;1.80;;;;;;;34.85;38.77;100091.89;108820;1259;60967;-90
2023/07/29 07:54:13;;;;;;;1.90;1.40;;;;;;;34.93;38.01;100092.33;108954;1255;67722;-88
2023/07/29 07:57:02;;;;;;;2.80;2.10;;;;;;;35.06;38.13;100095.48;108768;1255;59464;-88
2023/07/29 07:59:52;;;;;;;2.70;1.80;;;;;;;35.08;37.99;100095.02;108754;1256;66256;-88
2023/07/29 08:02:41;;;;;;;3.20;1.80;;;;;;;35.05;37.88;100093.46;108809;1257;59179;-90
2023/07/29 08:05:29;;;;;;;4.40;1.90;;;;;;;35.13;37.89;100089.27;108851;1255;62793;-89
2023/07/29 08:08:18;;;;;;;2.30;1.90;;;;;;;35.17;37.24;100088.73;108726;1257;67091;-89
2023/07/29 08:11:07;;;;;;;3.50;2.20;;;;;;;35.19;37.01;100088.27;108464;1255;60055;-91
2023/07/29 08:13:56;;;;;;;2.00;1.80;;;;;;;35.19;36.93;100087.71;108811;1257;65186;-87
2023/07/29 08:16:44;;;;;;;2.00;1.80;;;;;;;35.16;36.76;100085.22;108847;1255;59801;-88
2023/07/29 08:19:35;;;;;;;3.60;2.10;;;;;;;35.16;36.41;100081.71;108860;1255;59266;-88
2023/07/29 08:22:23;;;;;;;2.20;1.60;;;;;;;35.00;36.60;100082.55;108855;1255;66867;-89
2023/07/29 08:25:11;;;;;;;2.60;1.70;;;;;;;34.89;36.44;100075.28;108883;1255;61129;-87
2023/07/29 08:27:59;;;;;;;2.80;1.80;;;;;;;34.95;36.64;100075.98;108856;1255;66310;-89
2023/07/29 08:30:48;;;;;;;2.80;1.80;;;;;;;35.03;36.39;100074.34;108869;1255;59246;-88
2023/07/29 08:33:36;;;;;;;2.80;1.90;;;;;;;35.00;36.27;100069.98;108881;1255;59752;-87
2023/07/29 08:36:25;;;;;;;2.50;1.90;;;;;;;34.88;36.07;100071.84;108927;1255;68118;-90
2023/07/29 08:39:13;;;;;;;2.60;2.10;;;;;;;34.68;36.62;100072.97;108826;1255;60996;-89
2023/07/29 08:42:06;;;;;;;2.70;1.80;;;;;;;34.63;36.71;100071.40;108898;1255;63904;-88
2023/07/29 08:44:55;;;;;;;2.20;1.90;;;;;;;34.84;37.54;100066.78;108877;1256;59178;-88
2023/07/29 08:47:43;;;;;;;3.40;1.60;;;;;;;35.11;37.07;100069.77;108898;1255;59100;-88
2023/07/29 08:50:32;;;;;;;2.60;1.70;;;;;;;35.30;36.73;100065.66;108861;1255;67950;-87
2023/07/29 08:53:20;;;;;;;2.30;1.50;;;;;;;35.46;36.45;100067.98;108898;1255;62173;-88
2023/07/29 08:56:09;;;;;;;2.40;1.90;;;;;;;35.58;36.15;100071.23;108858;1255;66022;-87
2023/07/29 08:58:57;;;;;;;2.90;1.70;;;;;;;35.45;35.58;100075.80;108851;1255;59208;-88
2023/07/29 09:01:47;;;;;;;5.00;1.80;;;;;;;35.35;36.01;100078.20;108889;1255;59201;-88
2023/07/29 09:04:35;;;;;;;2.30;1.60;;;;;;;35.29;36.73;100073.55;108887;1255;76129;-87
2023/07/29 09:07:23;;;;;;;3.20;1.50;;;;;;;35.42;35.97;100072.76;108927;1255;60720;-88
2023/07/29 09:10:13;;;;;;;2.80;2.00;;;;;;;35.52;35.50;100079.55;108856;1255;66066;-88
2023/07/29 09:13:03;;;;;;;2.10;1.70;;;;;;;35.58;35.59;100078.23;108827;1255;59129;-87
2023/07/29 09:15:55;;;;;;;2.20;1.70;;;;;;;35.75;35.53;100076.47;108950;1255;59114;-88
2023/07/29 09:18:43;;;;;;;1.70;1.60;;;;;;;35.88;35.48;100079.89;108907;1255;67966;-89
2023/07/29 09:21:31;;;;;;;4.10;2.00;;;;;;;35.98;35.93;100079.60;108849;1255;59161;-88
2023/07/29 09:24:20;;;;;;;1.70;1.60;;;;;;;36.08;35.69;100077.84;108864;1255;63829;-88
2023/07/29 09:27:08;;;;;;;3.10;1.60;;;;;;;36.19;35.71;100076.80;108773;1255;59140;-89
2023/07/29 09:29:57;;;;;;;3.70;2.20;;;;;;;36.34;35.07;100076.21;108877;1255;59387;-89
2023/07/29 09:32:45;;;;;;;3.10;1.60;;;;;;;36.39;34.49;100076.52;108912;1255;66575;-88
2023/07/29 09:35:35;;;;;;;3.60;2.10;;;;;;;36.39;34.89;100074.31;108957;1256;61267;-88
2023/07/29 09:38:27;;;;;;;4.00;1.90;;;;;;;36.54;34.89;100064.30;108903;1257;64976;-90
2023/07/29 09:41:16;;;;;;;2.30;1.90;;;;;;;36.71;34.80;100062.52;108839;1257;59409;-89
2023/07/29 09:44:04;;;;;;;3.40;1.80;;;;;;;36.93;34.30;100060.69;108897;1255;59272;-89
2023/07/29 09:46:53;;;;;;;4.70;1.90;;;;;;;36.82;33.94;100068.80;108903;1256;66599;-89
2023/07/29 09:49:42;;;;;;;1.90;1.40;;;;;;;36.67;34.16;100066.42;108827;1255;60182;-89
2023/07/29 09:52:31;;;;;;;1.90;1.50;;;;;;;36.49;34.23;100070.75;108890;1255;66038;-89
2023/07/29 09:55:26;;;;;;;3.30;1.60;;;;;;;36.19;34.37;100071.19;108873;1255;59134;-89
2023/07/29 09:58:14;;;;;;;2.70;1.80;;;;;;;36.04;34.89;100071.52;108933;1256;59735;-90
2023/07/29 10:01:03;;;;;;;1.90;1.50;;;;;;;36.06;35.60;100066.64;108775;1255;66579;-88
2023/07/29 10:03:51;;;;;;;2.20;1.70;;;;;;;36.17;35.76;100062.57;108896;1256;60887;-88
2023/07/29 10:06:42;;;;;;;7.20;1.60;;;;;;;36.37;35.58;100058.20;108830;1256;65630;-87
2023/07/29 10:09:30;;;;;;;1.90;1.30;;;;;;;36.67;35.20;100059.64;108911;1256;59112;-88
2023/07/29 10:12:18;;;;;;;2.00;1.40;;;;;;;36.84;34.78;100059.03;108808;1257;59146;-88
2023/07/29 10:15:08;;;;;;;2.30;1.20;;;;;;;36.78;34.36;100063.35;108797;1256;69245;-90
2023/07/29 10:17:56;;;;;;;3.80;1.70;;;;;;;36.58;34.53;100063.64;108925;1256;59767;-88
2023/07/29 10:20:44;;;;;;;1.80;1.40;;;;;;;36.45;34.90;100061.46;108930;1256;64470;-87
2023/07/29 10:23:39;;;;;;;3.60;2.10;;;;;;;36.41;34.87;100065.15;108936;1255;59899;-88
2023/07/29 10:26:28;;;;;;;2.80;2.30;;;;;;;36.33;34.83;100063.50;108830;1256;60990;-88
2023/07/29 10:29:19;;;;;;;3.00;1.60;;;;;;;36.31;34.95;100062.52;108944;1255;67888;-89
2023/07/29 10:32:07;;;;;;;6.10;1.60;;;;;;;36.31;35.31;100056.02;108848;1255;60315;-89
2023/07/29 10:34:55;;;;;;;2.80;1.50;;;;;;;36.65;34.44;100053.23;108833;1255;65749;-89
2023/07/29 10:37:45;;;;;;;1.50;1.40;;;;;;;36.86;33.97;100053.83;108988;1256;59112;-88
2023/07/29 10:40:56;;;;;;;3.00;1.50;;;;;;;36.98;33.94;100054.23;108844;1256;59065;-88
2023/07/29 10:43:45;;;;;;;2.40;1.40;;;;;;;37.11;33.23;100051.40;108820;1256;66535;-89
2023/07/29 10:46:33;;;;;;;3.40;1.40;;;;;;;37.10;33.21;100052.00;108840;1257;61964;-89
2023/07/29 10:49:23;;;;;;;1.90;1.50;;;;;;;37.14;32.94;100047.96;108755;1257;62553;-89
2023/07/29 10:52:16;;;;;;;2.50;1.60;;;;;;;37.08;33.24;100051.23;108804;1257;59607;-89
2023/07/29 10:55:04;;;;;;;1.50;1.40;;;;;;;36.96;33.49;100053.66;108832;1258;59142;-90
2023/07/29 10:58:07;;;;;;;1.50;1.40;;;;;;;36.93;33.60;100053.70;108844;1257;67311;-89
2023/07/29 11:00:55;;;;;;;;;;;;;;;36.78;33.53;100055.64;108887;1257;62292;-90
2023/07/29 11:04:01;;;;;;;3.80;1.80;;;;;;;36.71;33.75;100064.61;108807;1257;63856;-88
2023/07/29 11:07:05;;;;;;;4.60;1.50;;;;;;;36.64;34.19;100062.77;108812;1257;59135;-89
2023/07/29 11:09:57;;;;;;;3.90;1.40;;;;;;;36.57;34.30;100055.98;108888;1257;59415;-90
2023/07/29 11:12:54;;;;;;;2.60;1.50;;;;;;;36.42;34.87;100057.59;108889;1257;68093;-88
2023/07/29 11:15:42;;;;;;;1.90;1.50;;;;;;;36.31;35.50;100060.90;108809;1257;59005;-88
2023/07/29 11:18:34;;;;;;;2.90;1.60;;;;;;;36.43;35.47;100065.22;108832;1256;75109;-88
2023/07/29 11:21:22;;;;;;;2.20;1.80;;;;;;;36.71;34.56;100065.58;108806;1259;59250;-89
2023/07/29 11:24:10;;;;;;;25.80;3.10;;;;;;;36.96;34.27;100071.87;108717;1257;59037;-89
2023/07/29 11:26:59;;;;;;;2.60;1.70;;;;;;;37.24;33.73;100065.33;108812;1259;66633;-89
2023/07/29 11:29:48;;;;;;;2.00;1.40;;;;;;;37.43;33.24;100061.67;108784;1258;59876;-88
2023/07/29 11:32:37;;;;;;;7.10;1.70;;;;;;;37.43;32.98;100059.81;108899;1257;63829;-89
2023/07/29 11:35:25;;;;;;;3.40;1.90;;;;;;;37.49;33.19;100063.98;108829;1256;59086;-89
2023/07/29 11:38:21;;;;;;;1.70;1.60;;;;;;;37.72;32.94;100061.12;108784;1257;59362;-88
2023/07/29 11:41:09;;;;;;;3.70;1.60;;;;;;;37.94;32.63;100060.52;108828;1256;66414;-89
2023/07/29 11:43:57;;;;;;;1.70;1.40;;;;;;;38.35;32.10;100057.32;108910;1259;60484;-89
2023/07/29 11:46:48;;;;;;;2.70;1.40;;;;;;;38.73;32.23;100046.66;108809;1257;65193;-89
2023/07/29 11:49:38;;;;;;;1.80;1.50;;;;;;;39.17;31.01;100040.73;108870;1258;59670;-90
2023/07/29 11:52:40;;;;;;;2.50;1.70;;;;;;;39.56;30.66;100041.23;108769;1256;59614;-93
2023/07/29 11:55:31;;;;;;;4.40;1.60;;;;;;;39.80;30.31;100036.50;108791;1258;65809;-89
2023/07/29 11:58:20;;;;;;;2.10;1.50;;;;;;;39.98;30.27;100043.16;108819;1257;61100;-90
2023/07/29 12:01:08;;;;;;;1.60;1.50;;;;;;;40.36;29.97;100043.55;108872;1256;67651;-89
2023/07/29 12:03:57;;;;;;;1.90;1.70;;;;;;;40.66;28.75;100043.55;108808;1257;59194;-90
2023/07/29 12:06:45;;;;;;;4.30;1.50;;;;;;;40.60;28.48;100041.95;108830;1257;59378;-90
2023/07/29 12:09:34;;;;;;;1.70;1.60;;;;;;;40.30;28.46;100042.09;108849;1257;64459;-89
2023/07/29 12:12:23;;;;;;;1.60;1.50;;;;;;;39.91;29.64;100039.75;108810;1258;62253;-90
2023/07/29 12:15:11;;;;;;;2.10;1.40;;;;;;;39.86;29.15;100037.48;108836;1257;62693;-89
2023/07/29 12:17:59;;;;;;;3.40;1.50;;;;;;;39.91;29.56;100034.20;108812;1257;59149;-89
2023/07/29 12:20:48;;;;;;;3.00;1.40;;;;;;;40.17;29.91;100030.21;108789;1259;59185;-88
2023/07/29 12:23:36;;;;;;;1.40;1.20;;;;;;;40.09;28.78;100015.63;108832;1258;67055;-88
2023/07/29 12:26:29;;;;;;;3.60;1.70;;;;;;;39.76;28.81;100020.70;108757;1258;61965;-89
2023/07/29 12:29:21;;;;;;;1.60;1.40;;;;;;;39.70;28.66;100017.33;108818;1257;66673;-88
2023/07/29 12:32:10;;;;;;;3.40;1.50;;;;;;;39.63;28.81;100014.48;108809;1258;59418;-89
2023/07/29 12:34:58;;;;;;;3.30;1.30;;;;;;;39.73;29.35;100014.10;108906;1257;59584;-89
2023/07/29 12:37:46;;;;;;;2.20;1.40;;;;;;;39.87;28.80;100017.44;108888;1257;67831;-90
2023/07/29 12:40:38;;;;;;;4.40;1.60;;;;;;;39.92;28.25;100020.08;108878;1258;62558;-90
2023/07/29 12:43:26;;;;;;;3.60;1.50;;;;;;;39.89;27.88;100021.73;108792;1257;73413;-89
2023/07/29 12:46:14;;;;;;;1.90;1.40;;;;;;;40.06;28.67;100019.95;108750;1257;59715;-88
2023/07/29 12:49:03;;;;;;;3.50;1.50;;;;;;;40.54;27.34;100021.29;108810;1259;59388;-89
2023/07/29 12:51:51;;;;;;;4.20;1.40;;;;;;;40.81;26.79;100013.33;108820;1257;67670;-90
2023/07/29 12:54:41;;;;;;;4.60;1.30;;;;;;;41.09;27.49;100018.13;108885;1258;61106;-89
2023/07/29 12:57:30;;;;;;;4.50;1.60;;;;;;;41.04;26.82;100015.64;108782;1257;64582;-89
2023/07/29 13:00:18;;;;;;;2.50;1.50;;;;;;;40.61;26.71;100016.36;108887;1256;59729;-90
2023/07/29 13:03:06;;;;;;;1.70;1.20;;;;;;;40.16;27.37;100015.12;108733;1256;59765;-91
2023/07/29 13:05:55;;;;;;;2.70;1.50;;;;;;;39.78;27.93;100015.75;108819;1261;64528;-91
2023/07/29 13:08:44;;;;;;;2.90;1.40;;;;;;;39.69;28.19;100014.60;108835;1258;59233;-90
2023/07/29 13:11:32;;;;;;;5.50;1.50;;;;;;;39.90;28.09;100017.11;108758;1257;65787;-89
2023/07/29 13:14:21;;;;;;;1.60;1.50;;;;;;;40.11;28.17;100012.69;108898;1257;59182;-89
2023/07/29 13:17:09;;;;;;;3.90;1.30;;;;;;;40.55;28.71;100007.93;108801;1258;59625;-91
2023/07/29 13:19:57;;;;;;;3.20;1.40;;;;;;;41.11;27.55;100010.06;108786;1258;68209;-90
2023/07/29 13:22:46;;;;;;;2.60;1.40;;;;;;;41.74;26.16;100002.43;108861;1258;59202;-90
2023/07/29 13:25:36;;;;;;;2.00;1.20;;;;;;;42.28;25.68;100003.11;108801;1256;64679;-90
2023/07/29 13:28:24;;;;;;;2.60;1.60;;;;;;;42.45;25.21;100003.72;108798;1256;59186;-90
2023/07/29 13:31:13;;;;;;;2.70;1.40;;;;;;;42.16;25.10;100002.29;108882;1258;59256;-90
2023/07/29 13:34:01;;;;;;;1.60;1.30;;;;;;;41.83;25.56;100000.80;108590;1257;67001;-90
2023/07/29 13:36:50;;;;;;;3.50;1.50;;;;;;;41.81;25.78;99999.12;108920;1258;60756;-90
2023/07/29 13:39:38;;;;;;;2.00;1.30;;;;;;;42.15;25.93;99995.23;108864;1256;64270;-90
2023/07/29 13:42:27;;;;;;;2.70;1.50;;;;;;;42.60;24.97;99991.59;108889;1256;59216;-89
2023/07/29 13:45:15;;;;;;;1.60;1.50;;;;;;;42.74;24.32;99986.17;108879;1258;59436;-90
2023/07/29 13:48:04;;;;;;;1.30;1.20;;;;;;;42.95;24.27;99991.46;108908;1256;68895;-90
2023/07/29 13:50:52;;;;;;;1.70;1.40;;;;;;;43.14;23.88;99990.08;108830;1262;61180;-90
2023/07/29 13:53:40;;;;;;;1.60;1.10;;;;;;;43.19;23.80;99985.15;108815;1256;65919;-90
2023/07/29 13:56:29;;;;;;;3.00;1.50;;;;;;;43.31;23.57;99984.40;108879;1256;59846;-90
2023/07/29 13:59:17;;;;;;;2.80;1.50;;;;;;;43.40;23.17;99984.48;108770;1260;59695;-90
2023/07/29 14:02:05;;;;;;;3.20;1.50;;;;;;;43.27;23.14;99984.02;108764;1257;68209;-90
2023/07/29 14:04:54;;;;;;;1.50;1.10;;;;;;;43.26;23.42;99981.14;108838;1257;59637;-91
2023/07/29 14:07:42;;;;;;;2.20;1.60;;;;;;;43.44;23.33;99978.37;108880;1257;65600;-90
2023/07/29 14:10:30;;;;;;;1.50;1.30;;;;;;;43.58;23.32;99971.95;108843;1259;59110;-90
2023/07/29 14:13:19;;;;;;;2.40;1.30;;;;;;;43.77;23.30;99973.44;108861;1258;59674;-90
2023/07/29 14:16:07;;;;;;;1.70;1.30;;;;;;;44.00;22.85;99969.84;108801;1259;68425;-90
2023/07/29 14:18:55;;;;;;;2.90;1.40;;;;;;;44.01;22.55;99968.02;108834;1257;59710;-89
2023/07/29 14:21:44;;;;;;;2.40;1.50;;;;;;;44.07;22.50;99965.98;108689;1258;66342;-89
2023/07/29 14:24:32;;;;;;;1.50;1.10;;;;;;;43.99;22.91;99963.16;108801;1261;59555;-90
2023/07/29 14:27:21;;;;;;;2.50;1.50;;;;;;;43.92;22.98;99960.11;108917;1257;59196;-90
2023/07/29 14:30:09;;;;;;;4.90;1.80;;;;;;;43.85;22.82;99963.92;108827;1257;65771;-91
2023/07/29 14:32:58;;;;;;;3.40;1.30;;;;;;;43.93;22.30;99968.64;108787;1259;61790;-89
2023/07/29 14:35:46;;;;;;;2.80;1.30;;;;;;;44.10;22.11;99966.77;108803;1256;66369;-90
2023/07/29 14:38:35;;;;;;;1.70;1.20;;;;;;;43.86;22.27;99966.65;108809;1257;59147;-90
2023/07/29 14:41:24;;;;;;;2.20;1.50;;;;;;;43.14;22.99;99967.08;108798;1257;59608;-91
2023/07/29 14:44:12;;;;;;;5.40;1.50;;;;;;;42.44;23.82;99976.34;108772;1258;64547;-90
2023/07/29 14:47:01;;;;;;;3.00;1.30;;;;;;;41.95;24.49;99975.25;108902;1257;59294;-90
2023/07/29 14:49:49;;;;;;;2.90;1.40;;;;;;;41.76;24.76;99975.96;108796;1257;64748;-90
2023/07/29 14:52:38;;;;;;;2.50;1.50;;;;;;;41.74;24.92;99977.24;108779;1257;59212;-90
2023/07/29 14:55:26;;;;;;;8.80;5.30;;;;;;;41.54;25.45;99976.20;108901;1257;59044;-90
2023/07/29 14:58:15;;;;;;;2.40;1.50;;;;;;;41.36;25.55;99968.16;108839;1257;64575;-91
2023/07/29 15:01:03;;;;;;;7.00;2.00;;;;;;;41.20;25.71;99964.81;108807;1257;62026;-89
2023/07/29 15:03:51;;;;;;;5.00;1.30;;;;;;;40.95;26.10;99964.28;108808;1257;66202;-91
2023/07/29 15:06:40;;;;;;;2.00;1.40;;;;;;;40.62;26.79;99966.02;108819;1257;59103;-90
2023/07/29 15:09:28;;;;;;;2.70;1.60;;;;;;;40.32;27.30;99970.27;108817;1259;59131;-91
2023/07/29 15:12:17;;;;;;;1.70;1.50;;;;;;;40.08;27.61;99972.17;108828;1257;65393;-92
2023/07/29 15:15:06;;;;;;;1.80;1.40;;;;;;;39.83;27.89;99975.45;108842;1257;59767;-91
2023/07/29 15:17:54;;;;;;;4.20;1.30;;;;;;;39.54;28.42;99979.34;108858;1258;65134;-90
2023/07/29 15:20:43;;;;;;;1.60;1.20;;;;;;;39.31;28.76;99979.52;108801;1257;59228;-90
2023/07/29 15:23:32;;;;;;;2.20;1.40;;;;;;;38.97;29.26;99975.05;108815;1257;59812;-90
2023/07/29 15:26:20;;;;;;;2.20;1.20;;;;;;;38.78;29.86;99979.30;108805;1258;66676;-90
2023/07/29 15:29:09;;;;;;;3.10;1.50;;;;;;;38.60;30.38;99982.07;108861;1257;62118;-90
2023/07/29 15:31:57;;;;;;;3.80;1.60;;;;;;;38.47;30.43;99987.70;108742;1262;65856;-91
2023/07/29 15:34:46;;;;;;;5.10;1.90;;;;;;;38.28;31.11;99993.82;108829;1257;59239;-90
2023/07/29 15:37:34;;;;;;;4.30;1.60;;;;;;;38.04;34.07;99997.74;108827;1257;59713;-89
2023/07/29 15:40:23;;;;;;;1.70;1.50;;;;;;;38.02;35.41;100010.97;108801;1257;68840;-90
2023/07/29 15:43:11;;;;;;;2.00;1.30;;;;;;;37.69;35.58;100007.42;108839;1256;61262;-89